KSBD/SBD METAR and TAF weather

Enter ICAO airport designator
Station Type Date Time Source
KSBD METAR 2019/06/19 07:40 UTC NOAA

KSBD 190740Z AUTO 26004KT 10SM CLR 18/13 A2999 RMK AO2 T01760128


Station Type Date Time Source
KSBD Decoded METAR 2019/06/19 07:40 UTC NOAA

Norton Air Force Base / San Bern, CA, United States (KSBD) 34-06N 117-14W
Jun 19, 2019 - 03:40 AM EDT / 2019.06.19 0740 UTC
Wind: from the W (260 degrees) at 5 MPH (4 KT):0
Visibility: 10 mile(s):0
Sky conditions: clear
Temperature: 63.7 F (17.6 C)
Dew Point: 55.0 F (12.8 C)
Relative Humidity: 73%
Pressure (altimeter): 29.99 in. Hg (1015 hPa)
ob: KSBD 190740Z AUTO 26004KT 10SM CLR 18/13 A2999 RMK AO2 T01760128
cycle: 7

Station Type Date Time Source
KSBD TAF 2019/06/19 06:22 UTC NOAA

TAF KSBD 190520Z 1906/2006 25005KT P6SM SCT015
FM191400 VRB03KT 3SM HZ OVC009
FM191800 25011KT 6SM HZ SCT080
FM200500 26007KT P6SM SCT015

Example: see airport list